Time;durP1;ratioP1;P1;durP2;ratioP2;P2;SDS_P1;SDS_P2;PMS_P1;PMS_P2;Temp;Humidity;BMP_temperature;BMP_pressure;BME280_temperature;BME280_humidity;BME280_pressure;Samples;Min_cycle;Max_cycle;Signal;HPM_P1;HPM_P2
2022/02/15 00:01:04;;;;;;;6.68;2.70;;;;;;;;;;4985528;28;20029;-79
2022/02/15 00:03:30;;;;;;;8.05;2.97;;;;;;;;;;4982642;28;20507;-80
2022/02/15 00:05:56;;;;;;;8.80;3.08;;;;;;;;;;4980668;28;20037;-84
2022/02/15 00:08:21;;;;;;;6.57;3.17;;;;;;;;;;4983146;28;20105;-84
2022/02/15 00:10:47;;;;;;;7.28;3.33;;;;;;;;;;4983508;28;20475;-84
2022/02/15 00:13:13;;;;;;;5.38;2.50;;;;;;;;;;4983313;28;20503;-80
2022/02/15 00:15:39;;;;;;;5.68;2.65;;;;;;;;;;4981935;28;20030;-80
2022/02/15 00:18:04;;;;;;;8.30;3.00;;;;;;;;;;4983189;28;20088;-84
2022/02/15 00:20:30;;;;;;;5.90;3.42;;;;;;;;;;4997482;28;20033;-83
2022/02/15 00:22:55;;;;;;;8.68;3.10;;;;;;;;;;4982292;28;20155;-85
2022/02/15 00:25:21;;;;;;;6.05;3.08;;;;;;;;;;4978550;28;20479;-84
2022/02/15 00:27:47;;;;;;;9.90;3.40;;;;;;;;;;4981171;28;20129;-86
2022/02/15 00:30:13;;;;;;;6.82;3.28;;;;;;;;;;4982384;28;20042;-79
2022/02/15 00:32:39;;;;;;;6.25;3.10;;;;;;;;;;4983685;28;20034;-80
2022/02/15 00:35:05;;;;;;;8.65;3.28;;;;;;;;;;4997848;28;20122;-84
2022/02/15 00:37:30;;;;;;;8.55;3.38;;;;;;;;;;4982237;28;20035;-84
2022/02/15 00:39:56;;;;;;;5.25;2.70;;;;;;;;;;4988731;28;20031;-84
2022/02/15 00:42:21;;;;;;;6.75;2.83;;;;;;;;;;4985337;28;20041;-81
2022/02/15 00:44:48;;;;;;;6.82;2.83;;;;;;;;;;4978356;28;20034;-84
2022/02/15 00:47:15;;;;;;;7.47;2.83;;;;;;;;;;4983610;28;20027;-84
2022/02/15 00:49:40;;;;;;;10.63;3.00;;;;;;;;;;4981050;28;20188;-84
2022/02/15 00:52:06;;;;;;;7.38;2.85;;;;;;;;;;4984557;28;20105;-86
2022/02/15 00:54:31;;;;;;;6.10;2.53;;;;;;;;;;4980227;28;20058;-84
2022/02/15 00:56:57;;;;;;;5.47;3.10;;;;;;;;;;4987656;28;20030;-79
2022/02/15 00:59:22;;;;;;;6.57;2.60;;;;;;;;;;4985715;28;20033;-83
2022/02/15 01:01:48;;;;;;;6.32;2.75;;;;;;;;;;4986624;28;20155;-84
2022/02/15 01:04:13;;;;;;;7.28;2.25;;;;;;;;;;4983469;28;20036;-84
2022/02/15 01:06:39;;;;;;;4.82;2.88;;;;;;;;;;4985362;28;20506;-83
2022/02/15 01:09:04;;;;;;;6.00;2.30;;;;;;;;;;4987017;28;20432;-85
2022/02/15 01:11:29;;;;;;;6.80;2.60;;;;;;;;;;4983767;28;20031;-81
2022/02/15 01:13:55;;;;;;;4.15;2.15;;;;;;;;;;4988111;28;20038;-83
2022/02/15 01:16:20;;;;;;;7.03;2.38;;;;;;;;;;4988703;28;20048;-85
2022/02/15 01:18:45;;;;;;;4.57;2.05;;;;;;;;;;4989632;28;20513;-84
2022/02/15 01:21:11;;;;;;;5.97;2.35;;;;;;;;;;4992435;28;20070;-85
2022/02/15 01:23:36;;;;;;;5.78;2.22;;;;;;;;;;4986113;28;20041;-84
2022/02/15 01:26:02;;;;;;;6.30;1.95;;;;;;;;;;4989737;28;20548;-83
2022/02/15 01:28:27;;;;;;;5.18;1.80;;;;;;;;;;4984188;28;20056;-84
2022/02/15 01:30:52;;;;;;;5.38;1.67;;;;;;;;;;4984932;28;20422;-84
2022/02/15 01:33:18;;;;;;;3.88;1.45;;;;;;;;;;4983488;28;20037;-84
2022/02/15 01:35:43;;;;;;;5.13;1.50;;;;;;;;;;4984354;28;20037;-86
2022/02/15 01:38:09;;;;;;;6.20;1.40;;;;;;;;;;4986542;28;20109;-84
2022/02/15 01:40:34;;;;;;;5.55;1.75;;;;;;;;;;4986116;28;20892;-84
2022/02/15 01:42:59;;;;;;;5.93;1.60;;;;;;;;;;4987557;28;20117;-84
2022/02/15 01:45:25;;;;;;;5.40;1.23;;;;;;;;;;4982972;28;20034;-84
2022/02/15 01:47:51;;;;;;;3.83;1.58;;;;;;;;;;4985197;28;20031;-81
2022/02/15 01:50:16;;;;;;;4.38;1.15;;;;;;;;;;4986252;28;20026;-85
2022/02/15 01:52:42;;;;;;;4.63;1.10;;;;;;;;;;4984307;28;20034;-83
2022/02/15 01:55:10;;;;;;;3.78;1.23;;;;;;;;;;4988349;28;20030;-83
2022/02/15 01:57:36;;;;;;;4.32;1.10;;;;;;;;;;4981359;28;20030;-81
2022/02/15 02:00:04;;;;;;;3.83;1.30;;;;;;;;;;4982499;28;20027;-83
2022/02/15 02:02:30;;;;;;;3.10;1.25;;;;;;;;;;4987952;28;20031;-86
2022/02/15 02:07:39;;;;;;;5.88;1.48;;;;;;;;;;4984969;28;20041;-84
2022/02/15 02:10:06;;;;;;;2.72;1.10;;;;;;;;;;4986666;28;20026;-84
2022/02/15 02:12:32;;;;;;;5.68;1.60;;;;;;;;;;4989584;28;20081;-82
2022/02/15 02:15:03;;;;;;;3.20;1.30;;;;;;;;;;4986260;28;20026;-83
2022/02/15 02:17:28;;;;;;;4.00;1.15;;;;;;;;;;4987164;28;20073;-84
2022/02/15 02:19:57;;;;;;;7.95;1.80;;;;;;;;;;4986887;28;20022;-85
2022/02/15 02:22:24;;;;;;;3.70;1.50;;;;;;;;;;4985959;28;20498;-80
2022/02/15 02:24:51;;;;;;;3.17;1.40;;;;;;;;;;4992131;28;20509;-84
2022/02/15 02:27:20;;;;;;;5.88;1.60;;;;;;;;;;4985626;28;20070;-86
2022/02/15 02:29:45;;;;;;;6.05;1.80;;;;;;;;;;4985543;28;20081;-85
2022/02/15 02:32:11;;;;;;;4.70;1.70;;;;;;;;;;4985200;28;20491;-84
2022/02/15 02:34:36;;;;;;;4.68;1.98;;;;;;;;;;4983802;28;20019;-84
2022/02/15 02:37:02;;;;;;;4.32;1.80;;;;;;;;;;4983299;28;20062;-86
2022/02/15 02:39:27;;;;;;;4.55;1.70;;;;;;;;;;4982901;28;20031;-86
2022/02/15 02:41:52;;;;;;;5.50;1.90;;;;;;;;;;5004473;28;20058;-83
2022/02/15 02:44:18;;;;;;;6.00;1.90;;;;;;;;;;4984824;28;20435;-85
2022/02/15 02:46:43;;;;;;;5.25;2.15;;;;;;;;;;4987688;28;20180;-80
2022/02/15 02:49:08;;;;;;;4.05;2.00;;;;;;;;;;4988136;28;20109;-81
2022/02/15 02:51:34;;;;;;;4.93;1.90;;;;;;;;;;4987286;28;20042;-84
2022/02/15 02:53:59;;;;;;;7.90;2.15;;;;;;;;;;4993878;28;20126;-84
2022/02/15 02:56:24;;;;;;;4.32;2.20;;;;;;;;;;4983170;28;20427;-79
2022/02/15 02:58:50;;;;;;;5.18;2.53;;;;;;;;;;4981422;28;20030;-80
2022/02/15 03:01:15;;;;;;;5.93;2.55;;;;;;;;;;4986876;28;20526;-84
2022/02/15 03:03:40;;;;;;;5.90;2.45;;;;;;;;;;4984953;28;20022;-83
2022/02/15 03:06:07;;;;;;;4.82;2.67;;;;;;;;;;4988585;28;20034;-83
2022/02/15 03:08:32;;;;;;;5.85;2.53;;;;;;;;;;4988149;28;20026;-84
2022/02/15 03:10:59;;;;;;;7.22;2.85;;;;;;;;;;4985533;28;20484;-80
2022/02/15 03:13:25;;;;;;;9.20;2.83;;;;;;;;;;4984104;28;20034;-79
2022/02/15 03:15:51;;;;;;;8.40;3.25;;;;;;;;;;4998347;28;20509;-84
2022/02/15 03:18:16;;;;;;;8.25;3.35;;;;;;;;;;4982197;28;20034;-84
2022/02/15 03:20:41;;;;;;;9.73;3.20;;;;;;;;;;4983306;28;20035;-83
2022/02/15 03:23:07;;;;;;;6.65;3.00;;;;;;;;;;4994822;28;20117;-83
2022/02/15 03:25:32;;;;;;;4.97;2.47;;;;;;;;;;4982263;28;20483;-83
2022/02/15 03:27:58;;;;;;;5.50;2.70;;;;;;;;;;4979712;28;20061;-85
2022/02/15 03:30:23;;;;;;;5.28;2.88;;;;;;;;;;4981265;28;20029;-83
2022/02/15 03:32:49;;;;;;;4.93;2.60;;;;;;;;;;4981087;28;20521;-84
2022/02/15 03:35:16;;;;;;;5.47;2.78;;;;;;;;;;4997176;28;20031;-83
2022/02/15 03:37:42;;;;;;;6.03;2.58;;;;;;;;;;4983430;28;20022;-84
2022/02/15 03:40:08;;;;;;;5.70;2.80;;;;;;;;;;4984344;28;20518;-85
2022/02/15 03:45:17;;;;;;;8.75;3.45;;;;;;;;;;4981938;28;20443;-85
2022/02/15 03:47:42;;;;;;;8.07;3.08;;;;;;;;;;4979168;28;20026;-84
2022/02/15 03:50:08;;;;;;;7.45;3.78;;;;;;;;;;4979044;28;20038;-80
2022/02/15 03:52:33;;;;;;;7.07;3.88;;;;;;;;;;4981103;28;20380;-84
2022/02/15 03:54:59;;;;;;;8.35;4.10;;;;;;;;;;4978076;28;20387;-86
2022/02/15 03:57:24;;;;;;;10.82;3.95;;;;;;;;;;4979694;28;20030;-84
2022/02/15 03:59:49;;;;;;;9.25;4.68;;;;;;;;;;4982007;28;20140;-81
2022/02/15 04:02:15;;;;;;;10.27;4.13;;;;;;;;;;4982431;28;20548;-83
2022/02/15 04:04:40;;;;;;;8.73;4.57;;;;;;;;;;4983280;28;20069;-86
2022/02/15 04:07:05;;;;;;;8.40;5.00;;;;;;;;;;4980645;28;20030;-81
2022/02/15 04:09:31;;;;;;;9.50;5.10;;;;;;;;;;4984404;28;20030;-84
2022/02/15 04:11:56;;;;;;;8.57;5.07;;;;;;;;;;4979247;28;20022;-83
2022/02/15 04:14:22;;;;;;;8.55;5.70;;;;;;;;;;4979709;28;20081;-80
2022/02/15 04:16:47;;;;;;;9.65;5.43;;;;;;;;;;4983901;28;20034;-83
2022/02/15 04:19:12;;;;;;;10.07;5.40;;;;;;;;;;4982692;28;20052;-84
2022/02/15 04:21:38;;;;;;;13.05;6.00;;;;;;;;;;4982806;28;20030;-86
2022/02/15 04:24:03;;;;;;;12.57;7.00;;;;;;;;;;4984499;28;20498;-85
2022/02/15 04:26:29;;;;;;;11.38;6.35;;;;;;;;;;4983723;28;20030;-84
2022/02/15 04:28:54;;;;;;;13.57;6.35;;;;;;;;;;4983280;28;20030;-84
2022/02/15 04:31:19;;;;;;;11.85;6.72;;;;;;;;;;4983871;28;20038;-81
2022/02/15 04:33:45;;;;;;;12.10;6.38;;;;;;;;;;4983609;28;20035;-80
2022/02/15 04:36:11;;;;;;;11.43;7.20;;;;;;;;;;4978748;28;20032;-83
2022/02/15 04:38:37;;;;;;;12.20;6.97;;;;;;;;;;4982182;28;20019;-79
2022/02/15 04:41:02;;;;;;;15.13;7.50;;;;;;;;;;4983817;28;20034;-83
2022/02/15 04:43:27;;;;;;;12.27;6.85;;;;;;;;;;4985676;28;20034;-84
2022/02/15 04:45:53;;;;;;;14.43;8.13;;;;;;;;;;4982566;28;20026;-85
2022/02/15 04:48:19;;;;;;;12.80;7.93;;;;;;;;;;4984090;28;20061;-80
2022/02/15 04:50:44;;;;;;;13.27;7.88;;;;;;;;;;4983366;28;20169;-80
2022/02/15 04:53:09;;;;;;;12.80;7.38;;;;;;;;;;4983386;28;20034;-81
2022/02/15 04:55:34;;;;;;;12.20;7.32;;;;;;;;;;4982929;28;20022;-84
2022/02/15 04:58:00;;;;;;;22.10;7.85;;;;;;;;;;4985159;28;20372;-83
2022/02/15 05:00:25;;;;;;;12.57;8.25;;;;;;;;;;4981478;28;20019;-80
2022/02/15 05:02:51;;;;;;;13.50;7.82;;;;;;;;;;4980489;28;20475;-80
2022/02/15 05:05:16;;;;;;;15.48;8.30;;;;;;;;;;4984974;28;20061;-83
2022/02/15 05:07:41;;;;;;;13.73;8.52;;;;;;;;;;4986209;28;20046;-80
2022/02/15 05:10:07;;;;;;;14.70;7.40;;;;;;;;;;4982803;28;20026;-83
2022/02/15 05:12:33;;;;;;;12.27;8.35;;;;;;;;;;4984144;28;20043;-81
2022/02/15 05:14:58;;;;;;;15.20;8.77;;;;;;;;;;4981684;28;20105;-83
2022/02/15 05:17:25;;;;;;;14.60;8.90;;;;;;;;;;5000538;28;20030;-84
2022/02/15 05:19:51;;;;;;;14.00;8.05;;;;;;;;;;4984768;28;20016;-84
2022/02/15 05:22:16;;;;;;;15.68;8.77;;;;;;;;;;4979403;28;20064;-84
2022/02/15 05:24:42;;;;;;;15.07;8.88;;;;;;;;;;4980681;28;20038;-85
2022/02/15 05:27:07;;;;;;;15.73;8.90;;;;;;;;;;4980928;28;20035;-84
2022/02/15 05:29:33;;;;;;;13.05;8.93;;;;;;;;;;4983882;28;20034;-82
2022/02/15 05:31:58;;;;;;;13.90;9.20;;;;;;;;;;4983256;28;20471;-83
2022/02/15 05:34:23;;;;;;;13.85;8.43;;;;;;;;;;4980638;28;20190;-84
2022/02/15 05:36:49;;;;;;;12.98;8.45;;;;;;;;;;4983826;28;20034;-83
2022/02/15 05:39:16;;;;;;;17.25;9.40;;;;;;;;;;4979994;28;20080;-84
2022/02/15 05:41:42;;;;;;;15.75;9.15;;;;;;;;;;4984820;28;20030;-80
2022/02/15 05:44:08;;;;;;;14.23;8.88;;;;;;;;;;4987858;28;20048;-84
2022/02/15 05:46:33;;;;;;;14.05;8.95;;;;;;;;;;4986418;28;20026;-83
2022/02/15 05:48:58;;;;;;;13.65;9.30;;;;;;;;;;4985601;28;20060;-84
2022/02/15 05:51:24;;;;;;;15.70;9.32;;;;;;;;;;4984710;28;20041;-85
2022/02/15 05:53:50;;;;;;;18.50;10.10;;;;;;;;;;4987675;28;20030;-83
2022/02/15 05:56:15;;;;;;;13.95;9.35;;;;;;;;;;4984134;28;20049;-84
2022/02/15 05:58:40;;;;;;;16.70;10.00;;;;;;;;;;4984711;28;20037;-86
2022/02/15 06:01:06;;;;;;;16.63;10.30;;;;;;;;;;4982936;28;20034;-84
2022/02/15 06:06:16;;;;;;;13.95;10.23;;;;;;;;;;4983688;28;20125;-85
2022/02/15 06:08:41;;;;;;;14.70;9.70;;;;;;;;;;4985716;28;20600;-84
2022/02/15 06:11:07;;;;;;;15.00;9.98;;;;;;;;;;4988450;28;20061;-84
2022/02/15 06:13:32;;;;;;;15.73;9.93;;;;;;;;;;4987632;28;20958;-84
2022/02/15 06:15:58;;;;;;;16.77;9.73;;;;;;;;;;4990092;28;20030;-84
2022/02/15 06:18:23;;;;;;;15.40;9.18;;;;;;;;;;4987825;28;20084;-84
2022/02/15 06:20:48;;;;;;;13.32;8.95;;;;;;;;;;4981339;28;20129;-84
2022/02/15 06:23:15;;;;;;;15.77;9.40;;;;;;;;;;4984368;28;20053;-80
2022/02/15 06:25:40;;;;;;;15.52;9.43;;;;;;;;;;4985355;28;20075;-83
2022/02/15 06:28:06;;;;;;;16.38;9.48;;;;;;;;;;4987813;28;20118;-83
2022/02/15 06:30:31;;;;;;;16.13;9.55;;;;;;;;;;4981959;28;20758;-84
2022/02/15 06:32:56;;;;;;;15.43;8.82;;;;;;;;;;4984030;28;20072;-84
2022/02/15 06:35:22;;;;;;;12.90;9.00;;;;;;;;;;4987980;28;20022;-84
2022/02/15 06:37:50;;;;;;;14.10;8.80;;;;;;;;;;4981467;28;20041;-84
2022/02/15 06:40:17;;;;;;;17.38;8.75;;;;;;;;;;4982143;28;20077;-79
2022/02/15 06:42:45;;;;;;;14.40;8.18;;;;;;;;;;4986106;28;20156;-84
2022/02/15 06:45:11;;;;;;;16.33;7.97;;;;;;;;;;4982606;28;20038;-84
2022/02/15 06:47:37;;;;;;;14.52;8.82;;;;;;;;;;4984165;28;20034;-84
2022/02/15 06:50:04;;;;;;;16.17;7.80;;;;;;;;;;4989129;28;20034;-80
2022/02/15 06:52:30;;;;;;;14.80;8.07;;;;;;;;;;4978842;28;20049;-83
2022/02/15 06:54:56;;;;;;;14.38;7.97;;;;;;;;;;4979804;28;20030;-84
2022/02/15 06:57:21;;;;;;;13.43;7.43;;;;;;;;;;4994102;28;20133;-84
2022/02/15 06:59:47;;;;;;;14.05;7.65;;;;;;;;;;4995135;28;20119;-80
2022/02/15 07:02:12;;;;;;;19.13;7.53;;;;;;;;;;4980819;28;20030;-84
2022/02/15 07:04:38;;;;;;;14.48;6.65;;;;;;;;;;4977646;28;20038;-84
2022/02/15 07:07:04;;;;;;;10.77;6.38;;;;;;;;;;4982669;28;20034;-83
2022/02/15 07:09:30;;;;;;;11.38;5.75;;;;;;;;;;4982189;28;20073;-80
2022/02/15 07:11:55;;;;;;;13.80;5.57;;;;;;;;;;4978886;28;20447;-84
2022/02/15 07:14:21;;;;;;;14.57;5.60;;;;;;;;;;4984345;28;20728;-84
2022/02/15 07:16:46;;;;;;;15.73;5.80;;;;;;;;;;4978288;28;20034;-83
2022/02/15 07:19:12;;;;;;;15.35;5.10;;;;;;;;;;4979707;28;20930;-84
2022/02/15 07:21:38;;;;;;;12.88;5.53;;;;;;;;;;4996569;28;20058;-84
2022/02/15 07:24:04;;;;;;;11.80;5.03;;;;;;;;;;4984165;28;20038;-84
2022/02/15 07:26:30;;;;;;;12.70;5.03;;;;;;;;;;4982149;28;20038;-84
2022/02/15 07:28:55;;;;;;;11.52;5.07;;;;;;;;;;4982138;28;20050;-81
2022/02/15 07:31:21;;;;;;;11.40;4.97;;;;;;;;;;4983894;28;20041;-83
2022/02/15 07:33:46;;;;;;;14.57;5.28;;;;;;;;;;4980392;28;20219;-80
2022/02/15 07:36:15;;;;;;;11.05;5.40;;;;;;;;;;4983125;28;20026;-83
2022/02/15 07:38:40;;;;;;;10.43;5.53;;;;;;;;;;4981842;28;20506;-80
2022/02/15 07:41:05;;;;;;;11.85;5.10;;;;;;;;;;4982149;28;20034;-83
2022/02/15 07:43:31;;;;;;;13.88;5.80;;;;;;;;;;4981543;28;20038;-84
2022/02/15 07:45:56;;;;;;;12.50;5.70;;;;;;;;;;4983235;28;20076;-85
2022/02/15 07:48:22;;;;;;;14.35;5.45;;;;;;;;;;4986717;28;20035;-79
2022/02/15 07:50:48;;;;;;;10.85;5.45;;;;;;;;;;4983552;28;20041;-84
2022/02/15 07:53:14;;;;;;;13.23;5.65;;;;;;;;;;4984783;28;20037;-83
2022/02/15 07:55:40;;;;;;;11.52;5.57;;;;;;;;;;4998127;28;20023;-80
2022/02/15 07:58:06;;;;;;;10.35;5.18;;;;;;;;;;4985154;28;20026;-86
2022/02/15 08:00:31;;;;;;;11.10;5.55;;;;;;;;;;4959665;28;20048;-84
2022/02/15 08:02:57;;;;;;;11.48;5.25;;;;;;;;;;4979123;28;20038;-86
2022/02/15 08:05:22;;;;;;;13.30;5.25;;;;;;;;;;4979819;28;20112;-84
2022/02/15 08:07:56;;;;;;;13.55;5.10;;;;;;;;;;4979823;28;20116;-80
2022/02/15 08:10:21;;;;;;;;;;;;;;;;;;4978709;28;20041;-80
2022/02/15 08:12:55;;;;;;;12.20;5.45;;;;;;;;;;4979508;28;19917;-84
2022/02/15 08:15:28;;;;;;;14.63;5.13;;;;;;;;;;4980464;28;20462;-86
2022/02/15 08:17:53;;;;;;;11.38;4.32;;;;;;;;;;4995145;28;20041;-82
2022/02/15 08:20:19;;;;;;;11.32;4.82;;;;;;;;;;4980680;28;20499;-84
2022/02/15 08:22:44;;;;;;;14.45;5.05;;;;;;;;;;4983436;28;20415;-84
2022/02/15 08:25:09;;;;;;;10.80;4.20;;;;;;;;;;4980300;28;20030;-84
2022/02/15 08:27:35;;;;;;;14.35;4.15;;;;;;;;;;4983000;28;20512;-84
2022/02/15 08:30:00;;;;;;;15.63;4.43;;;;;;;;;;4985125;28;20030;-84
2022/02/15 08:32:26;;;;;;;12.23;4.30;;;;;;;;;;4975140;28;20735;-85
2022/02/15 08:34:51;;;;;;;11.50;3.97;;;;;;;;;;4981202;28;20026;-83
2022/02/15 08:37:17;;;;;;;12.32;4.00;;;;;;;;;;4983063;28;20045;-84
2022/02/15 08:39:43;;;;;;;15.43;4.85;;;;;;;;;;4982000;28;20052;-85
2022/02/15 08:42:08;;;;;;;9.73;4.10;;;;;;;;;;4986047;28;20586;-84
2022/02/15 08:44:34;;;;;;;14.18;4.20;;;;;;;;;;4980660;28;20034;-86
2022/02/15 08:47:05;;;;;;;9.77;3.50;;;;;;;;;;4983608;28;20030;-85
2022/02/15 08:49:37;;;;;;;11.70;4.32;;;;;;;;;;4981448;28;20538;-80
2022/02/15 08:52:05;;;;;;;13.88;4.50;;;;;;;;;;4982980;28;20065;-84
2022/02/15 08:54:33;;;;;;;11.27;4.32;;;;;;;;;;4979405;28;20065;-84
2022/02/15 08:57:03;;;;;;;7.88;3.30;;;;;;;;;;4978513;28;20034;-80
2022/02/15 08:59:36;;;;;;;13.48;4.03;;;;;;;;;;4982031;28;20065;-85
2022/02/15 09:02:03;;;;;;;;;;;;;;;;;;4986401;28;20478;-85
2022/02/15 09:04:30;;;;;;;10.30;3.25;;;;;;;;;;4999467;28;20435;-80
2022/02/15 09:06:58;;;;;;;10.38;3.58;;;;;;;;;;4986404;28;20062;-78
2022/02/15 09:09:30;;;;;;;6.60;3.08;;;;;;;;;;4989006;28;20018;-85
2022/02/15 09:11:57;;;;;;;12.43;3.08;;;;;;;;;;4992946;28;20535;-85
2022/02/15 09:14:23;;;;;;;13.55;3.15;;;;;;;;;;4985302;28;20026;-85
2022/02/15 09:16:48;;;;;;;14.45;2.97;;;;;;;;;;4986788;28;20030;-85
2022/02/15 09:19:14;;;;;;;10.85;2.80;;;;;;;;;;4997938;28;20027;-80
2022/02/15 09:21:40;;;;;;;9.25;2.70;;;;;;;;;;4992238;28;20026;-82
2022/02/15 09:24:10;;;;;;;9.10;2.80;;;;;;;;;;4984078;28;20038;-81
2022/02/15 09:26:40;;;;;;;9.88;2.55;;;;;;;;;;4984816;28;20041;-83
2022/02/15 09:29:44;;;;;;;10.68;3.05;;;;;;;;;;4985936;28;20030;-85
2022/02/15 09:32:10;;;;;;;9.57;2.92;;;;;;;;;;4984467;28;20526;-85
2022/02/15 09:34:43;;;;;;;9.85;2.72;;;;;;;;;;4987030;28;20030;-84
2022/02/15 09:37:14;;;;;;;11.63;3.25;;;;;;;;;;4984813;28;20491;-85
2022/02/15 09:39:42;;;;;;;8.32;2.75;;;;;;;;;;5001582;28;20030;-83
2022/02/15 09:42:13;;;;;;;12.15;2.58;;;;;;;;;;4999257;28;20030;-84
2022/02/15 09:44:46;;;;;;;8.93;2.50;;;;;;;;;;4988192;28;20953;-82
2022/02/15 09:47:24;;;;;;;8.13;2.05;;;;;;;;;;4982277;28;20080;-83
2022/02/15 09:49:51;;;;;;;11.68;2.35;;;;;;;;;;5005235;28;20038;-85
2022/02/15 09:52:27;;;;;;;5.68;2.47;;;;;;;;;;4988945;28;20041;-86
2022/02/15 09:55:02;;;;;;;10.38;2.92;;;;;;;;;;4982268;28;20031;-80
2022/02/15 09:57:33;;;;;;;9.80;2.70;;;;;;;;;;4989268;28;20042;-83
2022/02/15 10:00:21;;;;;;;8.02;2.72;;;;;;;;;;4987568;28;20029;-83
2022/02/15 10:02:48;;;;;;;10.90;3.10;;;;;;;;;;4987484;28;20034;-84
2022/02/15 10:05:18;;;;;;;8.35;3.50;;;;;;;;;;4985940;28;20030;-83
2022/02/15 10:07:53;;;;;;;10.80;3.15;;;;;;;;;;4984775;28;20475;-84
2022/02/15 10:10:45;;;;;;;10.07;3.00;;;;;;;;;;5003475;28;20058;-79
2022/02/15 10:13:18;;;;;;;10.02;3.70;;;;;;;;;;4985631;28;20129;-84
2022/02/15 10:15:51;;;;;;;10.25;3.45;;;;;;;;;;4982350;28;20026;-79
2022/02/15 10:18:22;;;;;;;;;;;;;;;;;;4981981;28;20526;-85
2022/02/15 10:21:22;;;;;;;8.02;3.30;;;;;;;;;;5002113;28;19914;-80
2022/02/15 10:23:51;;;;;;;8.27;2.47;;;;;;;;;;5002518;28;20034;-83
2022/02/15 10:26:20;;;;;;;8.15;2.83;;;;;;;;;;4984059;28;20029;-83
2022/02/15 10:28:52;;;;;;;9.68;2.97;;;;;;;;;;4985153;28;20282;-83
2022/02/15 10:31:25;;;;;;;8.70;2.95;;;;;;;;;;4986835;28;20487;-83
2022/02/15 10:33:51;;;;;;;13.40;3.35;;;;;;;;;;4984261;28;20034;-82
2022/02/15 10:36:24;;;;;;;8.48;2.42;;;;;;;;;;4987375;28;20157;-79
2022/02/15 10:38:56;;;;;;;12.07;2.80;;;;;;;;;;4985250;28;20027;-85
2022/02/15 10:41:28;;;;;;;7.35;2.33;;;;;;;;;;4982564;28;20391;-79
2022/02/15 10:43:56;;;;;;;6.73;1.77;;;;;;;;;;4981618;28;20554;-83
2022/02/15 10:46:29;;;;;;;6.18;2.05;;;;;;;;;;4987697;28;20036;-85
2022/02/15 10:48:55;;;;;;;;;;;;;;;;;;5005585;28;20089;-84
2022/02/15 10:51:25;;;;;;;7.30;2.42;;;;;;;;;;5006210;28;20867;-86
2022/02/15 10:53:54;;;;;;;5.50;1.77;;;;;;;;;;4989935;28;20065;-79
2022/02/15 10:56:31;;;;;;;9.52;1.95;;;;;;;;;;4977450;28;20154;-85
2022/02/15 10:59:00;;;;;;;7.72;1.58;;;;;;;;;;4987759;28;20476;-78
2022/02/15 11:01:26;;;;;;;5.25;1.05;;;;;;;;;;4981610;28;20774;-84
2022/02/15 11:04:01;;;;;;;7.07;1.10;;;;;;;;;;4999871;28;20520;-79
2022/02/15 11:06:27;;;;;;;8.63;1.70;;;;;;;;;;4984400;28;20027;-84
2022/02/15 11:08:59;;;;;;;7.70;1.40;;;;;;;;;;4983995;28;20030;-85
2022/02/15 11:11:38;;;;;;;5.22;1.52;;;;;;;;;;4982984;28;20026;-84
2022/02/15 11:14:05;;;;;;;5.97;1.90;;;;;;;;;;4984933;28;20056;-86
2022/02/15 11:16:32;;;;;;;8.02;2.40;;;;;;;;;;4988731;28;20057;-86
2022/02/15 11:19:07;;;;;;;5.78;2.00;;;;;;;;;;4984729;28;20030;-80
2022/02/15 11:21:33;;;;;;;5.78;1.88;;;;;;;;;;4999969;28;20507;-84
2022/02/15 11:24:00;;;;;;;7.10;1.40;;;;;;;;;;4987120;28;20116;-80
2022/02/15 11:26:41;;;;;;;7.00;1.95;;;;;;;;;;4982399;28;20027;-83
2022/02/15 11:29:18;;;;;;;6.85;2.05;;;;;;;;;;4983792;28;20050;-83
2022/02/15 11:31:49;;;;;;;7.68;2.45;;;;;;;;;;4985761;28;20061;-84
2022/02/15 11:34:14;;;;;;;6.38;2.20;;;;;;;;;;4985673;28;20062;-84
2022/02/15 11:36:48;;;;;;;8.90;2.50;;;;;;;;;;4976784;28;20122;-83
2022/02/15 11:39:27;;;;;;;8.05;2.70;;;;;;;;;;4981695;28;20026;-84
2022/02/15 11:42:02;;;;;;;8.98;2.70;;;;;;;;;;4992660;28;20030;-85
2022/02/15 11:44:33;;;;;;;5.15;2.70;;;;;;;;;;4985496;28;20053;-83
2022/02/15 11:47:17;;;;;;;6.85;2.88;;;;;;;;;;4981754;28;20074;-85
2022/02/15 11:49:56;;;;;;;7.32;2.90;;;;;;;;;;4982435;28;20035;-85
2022/02/15 11:52:23;;;;;;;6.32;2.70;;;;;;;;;;4981523;28;20120;-83
2022/02/15 11:54:49;;;;;;;5.55;2.63;;;;;;;;;;4987637;28;20074;-83
2022/02/15 11:57:16;;;;;;;6.38;3.00;;;;;;;;;;4980440;28;20386;-80
2022/02/15 11:59:41;;;;;;;5.60;3.10;;;;;;;;;;4978499;28;20035;-84
2022/02/15 12:02:07;;;;;;;6.13;2.58;;;;;;;;;;4978842;28;20030;-84
2022/02/15 12:04:36;;;;;;;5.07;2.60;;;;;;;;;;4978523;28;20084;-85
2022/02/15 12:07:06;;;;;;;5.28;1.90;;;;;;;;;;4981002;28;20030;-83
2022/02/15 12:09:38;;;;;;;5.60;1.95;;;;;;;;;;4981883;28;20406;-79
2022/02/15 12:12:13;;;;;;;4.45;1.95;;;;;;;;;;4983158;28;20096;-79
2022/02/15 12:14:39;;;;;;;9.80;2.30;;;;;;;;;;4981979;28;20053;-85
2022/02/15 12:17:05;;;;;;;4.68;1.65;;;;;;;;;;4983462;28;20088;-83
2022/02/15 12:19:37;;;;;;;5.57;1.73;;;;;;;;;;5001711;28;20029;-84
2022/02/15 12:22:10;;;;;;;5.13;1.38;;;;;;;;;;4984488;28;20034;-78
2022/02/15 12:24:36;;;;;;;6.80;1.40;;;;;;;;;;4980141;28;20038;-83
2022/02/15 12:27:07;;;;;;;5.57;1.30;;;;;;;;;;4983677;28;20032;-82
2022/02/15 12:29:34;;;;;;;5.03;1.47;;;;;;;;;;4983366;28;20067;-79
2022/02/15 12:32:03;;;;;;;7.60;1.10;;;;;;;;;;4985839;28;20276;-84
2022/02/15 12:34:29;;;;;;;4.65;1.35;;;;;;;;;;4988841;28;20038;-84
2022/02/15 12:36:55;;;;;;;6.47;1.48;;;;;;;;;;4982932;28;20122;-79
2022/02/15 12:39:21;;;;;;;4.22;0.95;;;;;;;;;;4968417;28;20556;-83
2022/02/15 12:41:49;;;;;;;6.88;1.30;;;;;;;;;;4966291;28;20046;-82
2022/02/15 12:44:15;;;;;;;5.78;1.15;;;;;;;;;;4985918;28;20026;-83
2022/02/15 12:46:43;;;;;;;5.57;1.40;;;;;;;;;;4964158;28;20026;-84
2022/02/15 12:49:09;;;;;;;5.15;1.30;;;;;;;;;;4966204;28;20439;-84
2022/02/15 12:51:36;;;;;;;6.55;1.63;;;;;;;;;;4971384;28;20022;-78
2022/02/15 12:54:04;;;;;;;5.00;1.33;;;;;;;;;;4979112;28;20029;-83
2022/02/15 12:56:33;;;;;;;4.88;1.10;;;;;;;;;;4985730;28;20105;-84
2022/02/15 12:59:12;;;;;;;5.10;1.35;;;;;;;;;;4986336;28;20045;-85
2022/02/15 13:01:38;;;;;;;5.68;1.33;;;;;;;;;;4969383;28;20499;-82
2022/02/15 13:04:08;;;;;;;3.85;1.30;;;;;;;;;;4971678;28;20030;-84
2022/02/15 13:06:39;;;;;;;3.78;1.30;;;;;;;;;;4966302;28;20073;-84
2022/02/15 13:09:12;;;;;;;7.53;1.58;;;;;;;;;;4965426;28;20034;-82
2022/02/15 13:11:43;;;;;;;6.53;1.80;;;;;;;;;;4966060;28;20356;-82
2022/02/15 13:14:08;;;;;;;7.22;1.65;;;;;;;;;;4971083;28;20053;-79
2022/02/15 13:16:45;;;;;;;5.38;1.48;;;;;;;;;;4980154;28;20038;-82
2022/02/15 13:19:11;;;;;;;6.70;1.70;;;;;;;;;;4984312;28;20483;-79
2022/02/15 13:21:46;;;;;;;7.72;1.90;;;;;;;;;;4983215;28;20037;-83
2022/02/15 13:24:17;;;;;;;7.97;1.80;;;;;;;;;;4985914;28;20088;-85
2022/02/15 13:26:47;;;;;;;3.78;1.50;;;;;;;;;;4972315;28;20035;-83
2022/02/15 13:29:25;;;;;;;7.05;1.73;;;;;;;;;;4955312;28;20488;-83
2022/02/15 13:31:51;;;;;;;6.18;1.90;;;;;;;;;;4963252;28;20406;-79
2022/02/15 13:34:38;;;;;;;5.55;1.70;;;;;;;;;;4969243;28;20027;-85
2022/02/15 13:37:09;;;;;;;6.07;1.88;;;;;;;;;;4965695;28;20026;-84
2022/02/15 13:39:36;;;;;;;4.78;1.45;;;;;;;;;;4951492;28;20027;-82
2022/02/15 13:42:06;;;;;;;7.43;2.00;;;;;;;;;;4965728;28;20042;-82
2022/02/15 13:44:31;;;;;;;5.72;2.00;;;;;;;;;;4961048;28;20081;-82
2022/02/15 13:46:57;;;;;;;6.75;1.83;;;;;;;;;;4963773;28;20039;-83
2022/02/15 13:49:23;;;;;;;6.30;1.83;;;;;;;;;;4963061;28;20033;-81
2022/02/15 13:51:53;;;;;;;11.25;2.25;;;;;;;;;;4965889;28;20101;-83
2022/02/15 13:54:21;;;;;;;8.50;2.10;;;;;;;;;;4946585;28;20498;-78
2022/02/15 13:56:46;;;;;;;6.20;1.63;;;;;;;;;;4950150;28;20049;-85
2022/02/15 13:59:12;;;;;;;6.28;1.83;;;;;;;;;;4952730;28;20061;-85
2022/02/15 14:01:42;;;;;;;6.40;2.00;;;;;;;;;;4954459;28;20027;-85
2022/02/15 14:04:26;;;;;;;6.07;1.70;;;;;;;;;;4951180;28;20122;-79
2022/02/15 14:06:59;;;;;;;3.78;1.70;;;;;;;;;;4952253;28;20086;-83
2022/02/15 14:09:29;;;;;;;9.38;1.80;;;;;;;;;;4954465;28;20030;-84
2022/02/15 14:11:58;;;;;;;8.30;2.08;;;;;;;;;;4970421;28;20027;-78
2022/02/15 14:14:27;;;;;;;5.43;1.67;;;;;;;;;;4966600;28;20096;-83
2022/02/15 14:17:37;;;;;;;6.57;1.67;;;;;;;;;;4949992;28;20029;-84
2022/02/15 14:19:42;;;;;;;5.82;1.80;;;;;;;;;;4966586;28;20125;-80
2022/02/15 14:22:08;;;;;;;5.70;1.77;;;;;;;;;;4951081;28;20126;-83
2022/02/15 14:24:33;;;;;;;7.40;1.70;;;;;;;;;;4968683;28;20484;-84
2022/02/15 14:26:59;;;;;;;7.55;2.20;;;;;;;;;;4967107;28;20114;-84
2022/02/15 14:29:24;;;;;;;7.05;2.28;;;;;;;;;;4986400;28;20046;-83
2022/02/15 14:31:50;;;;;;;8.18;1.90;;;;;;;;;;4983423;28;20029;-79
2022/02/15 14:34:15;;;;;;;6.68;2.30;;;;;;;;;;4984680;28;20502;-84
2022/02/15 14:36:49;;;;;;;4.65;2.28;;;;;;;;;;4998739;28;20061;-79
2022/02/15 14:39:17;;;;;;;7.57;2.40;;;;;;;;;;4986797;28;20054;-84
2022/02/15 14:41:42;;;;;;;5.63;1.48;;;;;;;;;;4987892;28;20486;-79
2022/02/15 14:44:08;;;;;;;7.15;1.65;;;;;;;;;;4984726;28;20041;-84
2022/02/15 14:46:33;;;;;;;7.38;1.77;;;;;;;;;;4984077;28;20446;-82
2022/02/15 14:49:02;;;;;;;7.18;1.58;;;;;;;;;;4987661;28;20065;-84